createdAt,value
2023-12-11T00:00:51.453Z,14.60
2023-12-11T00:03:39.979Z,11.30
2023-12-11T00:06:08.965Z,11.20
2023-12-11T00:08:37.348Z,8.60
2023-12-11T00:11:05.716Z,14.60
2023-12-11T00:13:34.099Z,16.80
2023-12-11T00:16:02.421Z,11.00
2023-12-11T00:18:31.006Z,11.70
2023-12-11T00:21:01.486Z,12.20
2023-12-11T00:23:30.271Z,12.90
2023-12-11T00:25:59.284Z,13.80
2023-12-11T00:28:27.545Z,12.80
2023-12-11T00:30:55.950Z,14.40
2023-12-11T00:33:24.408Z,11.00
2023-12-11T00:35:52.987Z,10.30
2023-12-11T00:38:21.363Z,9.20
2023-12-11T00:40:49.763Z,10.00
2023-12-11T00:43:19.594Z,11.40
2023-12-11T00:45:47.939Z,11.10
2023-12-11T00:48:16.380Z,13.70
2023-12-11T00:50:44.788Z,14.40
2023-12-11T00:53:13.064Z,14.70
2023-12-11T00:55:41.441Z,12.80
2023-12-11T00:58:10.478Z,10.60
2023-12-11T01:00:38.949Z,9.80
2023-12-11T01:03:07.561Z,9.60
2023-12-11T01:05:36.083Z,11.10
2023-12-11T01:08:04.838Z,12.90
2023-12-11T01:10:33.155Z,12.20
2023-12-11T01:13:01.577Z,9.50
2023-12-11T01:15:29.940Z,9.50
2023-12-11T01:17:58.338Z,11.40
2023-12-11T01:20:26.759Z,10.60
2023-12-11T01:22:55.133Z,9.70
2023-12-11T01:25:23.621Z,8.40
2023-12-11T01:27:51.932Z,10.40
2023-12-11T01:30:21.101Z,8.30
2023-12-11T01:32:49.617Z,10.10
2023-12-11T01:35:18.050Z,9.00
2023-12-11T01:37:46.333Z,9.00
2023-12-11T01:40:14.813Z,7.00
2023-12-11T01:42:43.242Z,9.10
2023-12-11T01:45:11.972Z,6.60
2023-12-11T01:47:40.968Z,9.50
2023-12-11T01:50:09.966Z,7.50
2023-12-11T01:52:39.154Z,7.20
2023-12-11T01:55:08.210Z,12.00
2023-12-11T01:57:36.693Z,7.00
2023-12-11T02:00:07.109Z,9.20
2023-12-11T02:02:36.668Z,8.00
2023-12-11T02:05:05.896Z,12.00
2023-12-11T02:07:34.445Z,8.70
2023-12-11T02:10:02.987Z,5.10
2023-12-11T02:12:31.331Z,8.40
2023-12-11T02:14:59.782Z,10.30
2023-12-11T02:17:28.468Z,7.80
2023-12-11T02:19:56.998Z,7.30
2023-12-11T02:22:26.266Z,8.90
2023-12-11T02:25:01.997Z,9.40
2023-12-11T02:27:31.761Z,7.20
2023-12-11T02:30:00.506Z,9.60
2023-12-11T02:32:28.942Z,9.50
2023-12-11T02:34:57.499Z,8.20
2023-12-11T02:37:25.843Z,8.60
2023-12-11T02:39:54.270Z,10.90
2023-12-11T02:42:22.905Z,10.20
2023-12-11T02:44:51.178Z,9.80
2023-12-11T02:47:19.449Z,9.60
2023-12-11T02:49:47.903Z,13.20
2023-12-11T02:52:16.419Z,8.70
2023-12-11T02:54:44.915Z,9.70
2023-12-11T02:57:13.134Z,10.90
2023-12-11T02:59:41.460Z,11.70
2023-12-11T03:02:09.827Z,14.10
2023-12-11T03:04:38.432Z,10.40
2023-12-11T03:07:07.023Z,10.30
2023-12-11T03:09:35.399Z,13.60
2023-12-11T03:12:04.298Z,12.70
2023-12-11T03:14:32.537Z,10.00
2023-12-11T03:17:00.916Z,11.00
2023-12-11T03:19:29.401Z,12.40
2023-12-11T03:21:57.999Z,13.60
2023-12-11T03:24:26.354Z,13.40
2023-12-11T03:26:54.741Z,14.40
2023-12-11T03:29:22.955Z,14.50
2023-12-11T03:31:51.101Z,14.90
2023-12-11T03:34:19.381Z,13.70
2023-12-11T03:36:48.073Z,10.50
2023-12-11T03:39:16.934Z,18.90
2023-12-11T03:41:46.344Z,11.90
2023-12-11T03:44:14.713Z,14.30
2023-12-11T03:46:43.004Z,11.60
2023-12-11T03:49:11.624Z,15.00
2023-12-11T03:51:39.996Z,11.70
2023-12-11T03:54:08.841Z,12.40
2023-12-11T03:56:37.117Z,16.80
2023-12-11T03:59:05.389Z,11.40
2023-12-11T04:01:34.070Z,13.90
2023-12-11T04:04:02.779Z,16.70
2023-12-11T04:06:31.896Z,31.70
2023-12-11T04:09:00.439Z,41.40
2023-12-11T04:11:28.716Z,12.10
2023-12-11T04:13:57.094Z,11.40
2023-12-11T04:16:25.369Z,16.90
2023-12-11T04:18:55.329Z,15.90
2023-12-11T04:21:24.375Z,14.10
2023-12-11T04:23:52.656Z,15.30
2023-12-11T04:26:20.933Z,16.40
2023-12-11T04:28:49.312Z,17.80
2023-12-11T04:31:17.987Z,14.20
2023-12-11T04:33:46.551Z,15.80
2023-12-11T04:36:15.079Z,18.70
2023-12-11T04:38:43.340Z,17.40
2023-12-11T04:41:12.217Z,16.20
2023-12-11T04:43:40.505Z,14.70
2023-12-11T04:46:08.869Z,18.40
2023-12-11T04:48:37.612Z,17.30
2023-12-11T04:51:06.145Z,15.80
2023-12-11T04:53:34.548Z,18.80
2023-12-11T04:56:09.876Z,25.00
2023-12-11T04:58:38.146Z,23.10
2023-12-11T05:01:06.976Z,22.30
2023-12-11T05:03:35.563Z,22.60
2023-12-11T05:06:04.610Z,21.30
2023-12-11T05:08:33.098Z,19.40
2023-12-11T05:11:01.459Z,24.10
2023-12-11T05:13:29.735Z,27.50
2023-12-11T05:15:58.261Z,23.40
2023-12-11T05:18:26.706Z,17.20
2023-12-11T05:20:55.184Z,17.10
2023-12-11T05:23:23.554Z,22.80
2023-12-11T05:25:51.931Z,22.40
2023-12-11T05:28:20.495Z,21.60
2023-12-11T05:30:48.808Z,29.30
2023-12-11T05:33:17.324Z,41.00
2023-12-11T05:35:45.751Z,28.50
2023-12-11T05:38:14.036Z,25.80
2023-12-11T05:40:42.557Z,21.10
2023-12-11T05:43:11.062Z,23.80
2023-12-11T05:45:39.407Z,25.10
2023-12-11T05:48:09.124Z,23.10
2023-12-11T05:50:39.599Z,57.30
2023-12-11T05:53:09.627Z,20.10
2023-12-11T05:55:38.317Z,24.10
2023-12-11T05:58:06.677Z,23.70
2023-12-11T06:00:35.466Z,22.40
2023-12-11T06:03:04.056Z,24.20
2023-12-11T06:05:32.710Z,28.10
2023-12-11T06:08:01.127Z,26.00
2023-12-11T06:10:30.870Z,27.50
2023-12-11T06:12:59.489Z,29.60
2023-12-11T06:15:28.338Z,32.60
2023-12-11T06:17:56.811Z,47.20
2023-12-11T06:20:25.374Z,28.90
2023-12-11T06:22:53.648Z,33.90
2023-12-11T06:25:21.986Z,21.70
2023-12-11T06:27:52.794Z,26.20
2023-12-11T06:30:22.469Z,28.90
2023-12-11T06:32:50.871Z,26.40
2023-12-11T06:35:19.345Z,27.30
2023-12-11T06:37:47.705Z,31.10
2023-12-11T06:40:16.171Z,25.10
2023-12-11T06:42:44.721Z,27.90
2023-12-11T06:45:13.871Z,29.40
2023-12-11T06:47:42.750Z,30.20
2023-12-11T06:50:11.120Z,29.40
2023-12-11T06:52:39.831Z,37.80
2023-12-11T06:55:09.067Z,35.60
2023-12-11T06:57:37.433Z,43.90
2023-12-11T07:00:07.786Z,32.50
2023-12-11T07:02:36.280Z,30.70
2023-12-11T07:05:05.401Z,31.30
2023-12-11T07:07:34.238Z,30.40
2023-12-11T07:10:06.158Z,47.50
2023-12-11T07:12:35.184Z,40.10
2023-12-11T07:15:03.826Z,43.30
2023-12-11T07:17:35.453Z,35.50
2023-12-11T07:20:06.941Z,33.50
2023-12-11T07:22:36.235Z,41.70
2023-12-11T07:25:06.361Z,58.20
2023-12-11T07:27:35.543Z,46.70
2023-12-11T07:30:05.706Z,48.00
2023-12-11T07:32:34.076Z,37.70
2023-12-11T07:35:02.661Z,32.00
2023-12-11T07:37:31.538Z,38.00
2023-12-11T07:40:00.630Z,36.50
2023-12-11T07:42:29.501Z,45.20
2023-12-11T07:44:57.877Z,47.50
2023-12-11T07:47:26.427Z,46.40
2023-12-11T07:49:54.768Z,47.50
2023-12-11T07:52:23.427Z,57.20
2023-12-11T07:54:51.808Z,54.20
2023-12-11T07:57:20.280Z,40.70
2023-12-11T07:59:48.764Z,35.70
2023-12-11T08:02:17.075Z,33.20
2023-12-11T08:04:46.031Z,34.00
2023-12-11T08:07:18.439Z,42.40
2023-12-11T08:09:46.923Z,46.50
2023-12-11T08:12:15.383Z,32.30
2023-12-11T08:14:43.683Z,29.00
2023-12-11T08:17:12.165Z,33.00
2023-12-11T08:19:40.753Z,34.20
2023-12-11T08:22:09.207Z,33.00
2023-12-11T08:24:38.101Z,31.60
2023-12-11T08:27:08.850Z,29.00
2023-12-11T08:29:38.232Z,34.00
2023-12-11T08:32:10.110Z,33.20
2023-12-11T08:34:39.575Z,33.90
2023-12-11T08:37:09.976Z,38.20
2023-12-11T08:39:39.640Z,34.40
2023-12-11T08:42:08.112Z,40.60
2023-12-11T08:44:36.473Z,56.80
2023-12-11T08:47:04.948Z,45.90
2023-12-11T08:49:33.346Z,60.70
2023-12-11T08:52:03.553Z,36.80
2023-12-11T08:54:31.929Z,33.40
2023-12-11T08:57:00.217Z,38.40
2023-12-11T08:59:28.702Z,34.50
2023-12-11T09:01:57.286Z,36.40
2023-12-11T09:04:25.902Z,35.40
2023-12-11T09:06:54.368Z,36.80
2023-12-11T09:09:22.607Z,35.60
2023-12-11T09:11:51.231Z,37.00
2023-12-11T09:14:19.585Z,38.30
2023-12-11T09:16:47.951Z,42.50
2023-12-11T09:19:16.362Z,41.80
2023-12-11T09:21:44.848Z,39.70
2023-12-11T09:24:13.806Z,38.10
2023-12-11T09:26:42.182Z,34.40
2023-12-11T09:29:10.657Z,38.40
2023-12-11T09:31:39.547Z,36.70
2023-12-11T09:34:08.378Z,43.20
2023-12-11T09:36:37.064Z,39.50
2023-12-11T09:39:06.024Z,40.40
2023-12-11T09:41:35.993Z,42.10
2023-12-11T09:44:05.025Z,44.20
2023-12-11T09:46:53.270Z,40.00
2023-12-11T09:49:22.347Z,48.70
2023-12-11T09:51:50.750Z,43.70
2023-12-11T09:54:19.216Z,46.80
2023-12-11T09:56:48.591Z,38.60
2023-12-11T09:59:17.409Z,46.10
2023-12-11T10:01:48.374Z,50.80
2023-12-11T10:04:16.751Z,55.60
2023-12-11T10:06:45.056Z,40.80
2023-12-11T10:09:35.138Z,47.10
2023-12-11T10:12:05.371Z,48.00
2023-12-11T10:14:34.816Z,50.20
2023-12-11T10:17:17.175Z,47.30
2023-12-11T10:19:45.675Z,40.20
2023-12-11T10:22:27.998Z,49.30
2023-12-11T10:24:56.713Z,45.70
2023-12-11T10:27:28.713Z,44.60
2023-12-11T10:30:24.582Z,42.60
2023-12-11T10:33:02.885Z,40.00
2023-12-11T10:35:32.919Z,47.20
2023-12-11T10:38:02.821Z,53.00
2023-12-11T10:40:50.757Z,47.40
2023-12-11T10:43:19.995Z,43.40
2023-12-11T10:45:51.777Z,40.90
2023-12-11T10:48:22.771Z,42.70
2023-12-11T10:50:52.049Z,46.70
2023-12-11T10:53:20.811Z,39.60
2023-12-11T10:55:50.969Z,44.50
2023-12-11T10:58:20.848Z,38.90
2023-12-11T11:00:49.465Z,40.10
2023-12-11T11:03:20.020Z,42.10
2023-12-11T11:05:51.617Z,43.90
2023-12-11T11:08:47.377Z,59.10
2023-12-11T11:11:33.250Z,50.10
2023-12-11T11:14:13.939Z,49.50
2023-12-11T11:16:54.842Z,50.90
2023-12-11T11:19:24.081Z,49.80
2023-12-11T11:22:01.638Z,44.20
2023-12-11T11:24:30.430Z,44.90
2023-12-11T11:26:58.909Z,48.30
2023-12-11T11:29:43.518Z,44.30
2023-12-11T11:32:13.168Z,45.20
2023-12-11T11:34:41.405Z,39.30
2023-12-11T11:37:14.862Z,46.60
2023-12-11T11:40:04.475Z,49.30
2023-12-11T11:42:34.525Z,45.80
2023-12-11T11:45:05.540Z,49.60
2023-12-11T11:47:34.336Z,46.30
2023-12-11T11:50:11.418Z,43.60
2023-12-11T11:52:43.462Z,42.80
2023-12-11T11:55:25.575Z,53.70
2023-12-11T11:57:54.735Z,41.70
2023-12-11T12:00:29.473Z,49.50
2023-12-11T12:03:04.724Z,46.90
2023-12-11T12:05:33.194Z,44.70
2023-12-11T12:08:02.134Z,110.60
2023-12-11T12:10:30.449Z,46.00
2023-12-11T12:13:00.378Z,43.30
2023-12-11T12:15:29.351Z,45.70
2023-12-11T12:18:13.957Z,46.00
2023-12-11T12:20:42.423Z,44.30
2023-12-11T12:23:11.564Z,43.90
2023-12-11T12:25:39.864Z,41.60
2023-12-11T12:28:15.194Z,41.30
2023-12-11T12:30:44.171Z,43.30
2023-12-11T12:33:13.708Z,45.50
2023-12-11T12:35:45.431Z,42.60
2023-12-11T12:38:16.010Z,50.50
2023-12-11T12:40:44.350Z,46.30
2023-12-11T12:43:15.813Z,49.50
2023-12-11T12:45:44.298Z,52.60
2023-12-11T12:48:14.062Z,44.50
2023-12-11T12:50:42.530Z,46.00
2023-12-11T12:53:13.912Z,49.10
2023-12-11T12:55:42.269Z,44.80
2023-12-11T12:58:14.853Z,43.80
2023-12-11T13:00:45.857Z,46.30
2023-12-11T13:03:14.568Z,47.80
2023-12-11T13:05:47.171Z,44.20
2023-12-11T13:08:16.282Z,47.60
2023-12-11T13:10:56.612Z,45.00
2023-12-11T13:13:28.316Z,45.40
2023-12-11T13:15:57.833Z,40.90
2023-12-11T13:18:26.725Z,45.10
2023-12-11T13:20:55.446Z,47.80
2023-12-11T13:23:25.238Z,40.00
2023-12-11T13:25:53.455Z,46.30
2023-12-11T13:28:21.758Z,52.50
2023-12-11T13:30:49.873Z,41.50
2023-12-11T13:33:18.163Z,47.40
2023-12-11T13:35:46.484Z,44.60
2023-12-11T13:38:14.842Z,56.60
2023-12-11T13:40:43.246Z,42.30
2023-12-11T13:43:13.008Z,49.70
2023-12-11T13:45:41.496Z,48.40
2023-12-11T13:48:09.911Z,52.10
2023-12-11T13:50:38.240Z,49.30
2023-12-11T13:53:06.391Z,40.80
2023-12-11T13:55:34.586Z,42.20
2023-12-11T13:58:02.846Z,50.90
2023-12-11T14:00:31.175Z,50.50
2023-12-11T14:03:03.749Z,45.30
2023-12-11T14:05:34.597Z,48.10
2023-12-11T14:08:04.521Z,64.10
2023-12-11T14:10:37.011Z,59.00
2023-12-11T14:13:06.218Z,73.90
2023-12-11T14:15:34.786Z,64.80
2023-12-11T14:18:04.781Z,45.60
2023-12-11T14:20:33.056Z,51.70
2023-12-11T14:23:03.696Z,46.10
2023-12-11T14:25:31.883Z,44.90
2023-12-11T14:28:06.102Z,44.20
2023-12-11T14:30:38.376Z,38.80
2023-12-11T14:33:08.252Z,38.90
2023-12-11T14:35:37.544Z,43.10
2023-12-11T14:38:06.100Z,45.40
2023-12-11T14:40:34.542Z,47.10
2023-12-11T14:43:03.681Z,57.50
2023-12-11T14:45:32.148Z,52.90
2023-12-11T14:48:00.450Z,52.50
2023-12-11T14:50:28.733Z,56.40
2023-12-11T14:52:56.914Z,116.70
2023-12-11T14:55:26.196Z,60.40
2023-12-11T14:57:54.929Z,54.00
2023-12-11T15:00:23.321Z,45.90
2023-12-11T15:02:51.572Z,55.20
2023-12-11T15:05:20.651Z,52.20
2023-12-11T15:07:48.979Z,48.90
2023-12-11T15:10:17.240Z,337.20
2023-12-11T15:12:45.443Z,54.30
2023-12-11T15:15:14.065Z,102.90
2023-12-11T15:17:42.253Z,263.30
2023-12-11T15:20:11.713Z,148.80
2023-12-11T15:22:40.067Z,64.70
2023-12-11T15:25:11.118Z,67.20
2023-12-11T15:27:39.370Z,69.20
2023-12-11T15:30:09.467Z,101.10
2023-12-11T15:32:38.024Z,71.50
2023-12-11T15:35:07.162Z,105.80
2023-12-11T15:37:36.054Z,72.80
2023-12-11T15:40:08.492Z,61.10
2023-12-11T15:42:39.372Z,50.10
2023-12-11T15:45:07.965Z,76.50
2023-12-11T15:47:59.827Z,55.70
2023-12-11T15:50:25.662Z,58.30
2023-12-11T15:52:53.946Z,80.40
2023-12-11T15:55:22.236Z,69.10
2023-12-11T15:57:50.588Z,55.40
2023-12-11T16:00:19.102Z,53.80
2023-12-11T16:02:47.666Z,75.90
2023-12-11T16:05:16.210Z,62.20
2023-12-11T16:07:44.698Z,65.70
2023-12-11T16:10:12.933Z,67.30
2023-12-11T16:12:41.188Z,95.60
2023-12-11T16:15:09.984Z,87.40
2023-12-11T16:17:38.178Z,64.90
2023-12-11T16:20:07.385Z,69.20
2023-12-11T16:22:36.186Z,70.70
2023-12-11T16:25:04.731Z,60.60
2023-12-11T16:27:33.256Z,67.30
2023-12-11T16:30:01.666Z,72.50
2023-12-11T16:32:33.082Z,72.10
2023-12-11T16:35:01.778Z,65.00
2023-12-11T16:37:30.168Z,54.20
2023-12-11T16:39:58.531Z,51.30
2023-12-11T16:42:28.751Z,68.90
2023-12-11T16:44:57.189Z,49.40
2023-12-11T16:47:25.335Z,52.40
2023-12-11T16:50:02.083Z,50.20
2023-12-11T16:52:35.198Z,48.90
2023-12-11T16:55:04.050Z,58.40
2023-12-11T16:57:32.468Z,51.50
2023-12-11T17:00:00.733Z,57.30
2023-12-11T17:02:29.618Z,48.40
2023-12-11T17:04:58.056Z,66.30
2023-12-11T17:07:26.450Z,50.70
2023-12-11T17:09:55.550Z,75.90
2023-12-11T17:12:23.708Z,69.90
2023-12-11T17:14:53.982Z,55.20
2023-12-11T17:17:23.483Z,81.90
2023-12-11T17:19:51.792Z,64.50
2023-12-11T17:22:20.090Z,72.50
2023-12-11T17:24:49.494Z,77.90
2023-12-11T17:27:17.788Z,65.90
2023-12-11T17:29:45.971Z,53.80
2023-12-11T17:32:14.398Z,54.10
2023-12-11T17:34:43.357Z,53.20
2023-12-11T17:37:13.634Z,67.20
2023-12-11T17:39:42.326Z,59.90
2023-12-11T17:42:10.676Z,57.00
2023-12-11T17:44:39.057Z,55.90
2023-12-11T17:47:07.328Z,61.20
2023-12-11T17:49:35.737Z,46.30
2023-12-11T17:52:04.738Z,62.30
2023-12-11T17:54:33.488Z,54.20
2023-12-11T17:57:04.880Z,57.50
2023-12-11T17:59:33.221Z,62.40
2023-12-11T18:02:01.567Z,59.00
2023-12-11T18:04:30.074Z,56.30
2023-12-11T18:06:58.468Z,64.70
2023-12-11T18:09:29.395Z,51.80
2023-12-11T18:11:59.708Z,60.10
2023-12-11T18:14:28.304Z,59.90
2023-12-11T18:16:56.767Z,49.80
2023-12-11T18:19:25.308Z,53.50
2023-12-11T18:21:54.336Z,49.40
2023-12-11T18:24:23.245Z,55.30
2023-12-11T18:26:51.519Z,62.90
2023-12-11T18:29:22.278Z,62.80
2023-12-11T18:31:52.471Z,52.80
2023-12-11T18:34:21.346Z,54.90
2023-12-11T18:36:49.689Z,53.00
2023-12-11T18:39:18.116Z,65.10
2023-12-11T18:41:46.905Z,72.70
2023-12-11T18:44:15.186Z,64.30
2023-12-11T18:46:43.558Z,62.10
2023-12-11T18:49:13.966Z,55.50
2023-12-11T18:51:42.475Z,66.60
2023-12-11T18:54:11.560Z,58.00
2023-12-11T18:56:40.449Z,54.90
2023-12-11T18:59:08.729Z,48.50
2023-12-11T19:01:37.158Z,48.30
2023-12-11T19:04:07.521Z,57.70
2023-12-11T19:06:36.236Z,63.40
2023-12-11T19:09:05.373Z,60.20
2023-12-11T19:11:33.696Z,58.70
2023-12-11T19:14:06.881Z,60.50
2023-12-11T19:16:35.157Z,55.80
2023-12-11T19:19:03.565Z,59.50
2023-12-11T19:21:32.020Z,55.60
2023-12-11T19:24:00.921Z,68.40
2023-12-11T19:26:29.211Z,58.70
2023-12-11T19:28:57.884Z,53.00
2023-12-11T19:31:26.808Z,54.40
2023-12-11T19:33:55.421Z,47.50
2023-12-11T19:36:23.828Z,52.60
2023-12-11T19:38:54.686Z,57.70
2023-12-11T19:41:22.933Z,60.60
2023-12-11T19:43:51.526Z,62.70
2023-12-11T19:46:20.135Z,63.40
2023-12-11T19:48:48.654Z,62.10
2023-12-11T19:51:17.061Z,60.80
2023-12-11T19:53:45.338Z,61.60
2023-12-11T19:56:23.649Z,63.20
2023-12-11T19:58:52.760Z,60.60
2023-12-11T20:01:34.569Z,63.90
2023-12-11T20:04:03.447Z,73.80
2023-12-11T20:06:32.520Z,64.30
2023-12-11T20:09:00.809Z,61.80
2023-12-11T20:11:31.937Z,58.80
2023-12-11T20:14:00.738Z,67.90
2023-12-11T20:16:30.686Z,61.20
2023-12-11T20:18:59.331Z,61.90
2023-12-11T20:21:27.827Z,55.40
2023-12-11T20:23:56.084Z,51.10
2023-12-11T20:26:24.820Z,59.20
2023-12-11T20:28:53.151Z,58.20
2023-12-11T20:31:21.474Z,58.50
2023-12-11T20:33:50.197Z,64.70
2023-12-11T20:36:20.174Z,59.00
2023-12-11T20:38:48.820Z,57.80
2023-12-11T20:41:21.795Z,63.60
2023-12-11T20:43:51.880Z,54.80
2023-12-11T20:46:25.148Z,53.20
2023-12-11T20:48:54.938Z,49.20
2023-12-11T20:51:23.916Z,67.30
2023-12-11T20:53:52.802Z,65.10
2023-12-11T20:56:22.419Z,64.30
2023-12-11T20:58:52.433Z,68.10
2023-12-11T21:01:30.715Z,72.80
2023-12-11T21:04:01.084Z,69.40
2023-12-11T21:06:30.869Z,68.20
2023-12-11T21:09:01.085Z,68.90
2023-12-11T21:11:30.192Z,62.10
2023-12-11T21:13:59.899Z,63.60
2023-12-11T21:16:28.539Z,65.20
2023-12-11T21:18:57.279Z,58.30
2023-12-11T21:21:26.671Z,56.50
2023-12-11T21:23:55.353Z,63.20
2023-12-11T21:26:25.032Z,66.20
2023-12-11T21:28:54.526Z,58.30
2023-12-11T21:31:29.898Z,62.90
2023-12-11T21:33:59.121Z,61.70
2023-12-11T21:36:31.045Z,62.50
2023-12-11T21:39:00.540Z,56.90
2023-12-11T21:41:29.061Z,57.20
2023-12-11T21:44:04.471Z,53.90
2023-12-11T21:46:32.729Z,35.00
2023-12-11T21:49:02.765Z,38.80
2023-12-11T21:51:34.015Z,45.00
2023-12-11T21:54:02.734Z,46.50
2023-12-11T21:56:30.998Z,52.00
2023-12-11T21:58:59.584Z,59.80
2023-12-11T22:01:28.031Z,52.30
2023-12-11T22:03:56.445Z,49.40
2023-12-11T22:06:25.141Z,47.40
2023-12-11T22:08:53.507Z,56.40
2023-12-11T22:11:23.426Z,46.30
2023-12-11T22:13:52.203Z,43.80
2023-12-11T22:16:20.373Z,41.70
2023-12-11T22:18:49.041Z,41.60
2023-12-11T22:21:27.895Z,35.60
2023-12-11T22:23:56.264Z,47.30
2023-12-11T22:26:24.399Z,45.70
2023-12-11T22:28:52.819Z,49.90
2023-12-11T22:31:30.955Z,54.50
2023-12-11T22:33:59.569Z,51.30
2023-12-11T22:36:28.000Z,48.90
2023-12-11T22:38:56.263Z,46.60
2023-12-11T22:41:29.390Z,46.50
2023-12-11T22:46:27.266Z,47.90
2023-12-11T22:48:57.723Z,53.80
2023-12-11T22:51:26.147Z,51.00
2023-12-11T22:53:54.517Z,48.70
2023-12-11T22:56:22.797Z,49.70
2023-12-11T22:58:51.095Z,56.80
2023-12-11T23:01:19.650Z,45.30
2023-12-11T23:03:48.566Z,45.50
2023-12-11T23:06:17.123Z,52.20
2023-12-11T23:08:45.650Z,56.30
2023-12-11T23:11:13.989Z,52.30
2023-12-11T23:13:42.263Z,51.00
2023-12-11T23:16:10.452Z,58.10
2023-12-11T23:18:38.954Z,70.20
2023-12-11T23:21:17.640Z,69.20
2023-12-11T23:23:46.976Z,66.80
2023-12-11T23:26:15.424Z,72.20
2023-12-11T23:28:43.920Z,71.20
2023-12-11T23:31:12.356Z,62.10
2023-12-11T23:33:40.806Z,58.70
2023-12-11T23:36:09.978Z,58.50
2023-12-11T23:38:38.281Z,54.10
2023-12-11T23:41:06.682Z,50.30
2023-12-11T23:43:35.326Z,46.30
2023-12-11T23:46:03.771Z,49.40
2023-12-11T23:48:32.379Z,49.60
2023-12-11T23:51:00.888Z,52.10
2023-12-11T23:53:29.234Z,50.60
2023-12-11T23:55:57.406Z,50.90
2023-12-11T23:58:25.706Z,48.60
